sensor_id;sensor_type;location;lat;lon;timestamp;P1;durP1;ratioP1;P2;durP2;ratioP2
14092;SDS011;7123;49.468;10.992;2022-07-24T00:02:14;8.60;;;7.90;;
14092;SDS011;7123;49.468;10.992;2022-07-24T00:04:41;9.55;;;8.75;;
14092;SDS011;7123;49.468;10.992;2022-07-24T00:07:08;9.20;;;8.40;;
14092;SDS011;7123;49.468;10.992;2022-07-24T00:09:34;9.52;;;8.63;;
14092;SDS011;7123;49.468;10.992;2022-07-24T00:12:01;9.57;;;8.60;;
14092;SDS011;7123;49.468;10.992;2022-07-24T00:14:28;8.73;;;7.93;;
14092;SDS011;7123;49.468;10.992;2022-07-24T00:16:55;8.75;;;7.75;;
14092;SDS011;7123;49.468;10.992;2022-07-24T00:19:22;9.50;;;8.65;;
14092;SDS011;7123;49.468;10.992;2022-07-24T00:21:48;8.25;;;7.68;;
14092;SDS011;7123;49.468;10.992;2022-07-24T00:24:15;8.93;;;8.23;;
14092;SDS011;7123;49.468;10.992;2022-07-24T00:26:42;9.00;;;8.10;;
14092;SDS011;7123;49.468;10.992;2022-07-24T00:29:09;10.57;;;8.93;;
14092;SDS011;7123;49.468;10.992;2022-07-24T00:31:35;8.88;;;8.18;;
14092;SDS011;7123;49.468;10.992;2022-07-24T00:34:02;9.05;;;8.32;;
14092;SDS011;7123;49.468;10.992;2022-07-24T00:36:29;8.80;;;8.10;;
14092;SDS011;7123;49.468;10.992;2022-07-24T00:38:55;8.93;;;8.13;;
14092;SDS011;7123;49.468;10.992;2022-07-24T00:41:22;9.48;;;8.77;;
14092;SDS011;7123;49.468;10.992;2022-07-24T00:43:59;9.27;;;8.48;;
14092;SDS011;7123;49.468;10.992;2022-07-24T00:46:26;9.80;;;8.82;;
14092;SDS011;7123;49.468;10.992;2022-07-24T00:48:53;8.82;;;7.93;;
14092;SDS011;7123;49.468;10.992;2022-07-24T00:51:21;9.73;;;8.80;;
14092;SDS011;7123;49.468;10.992;2022-07-24T00:53:48;9.68;;;8.82;;
14092;SDS011;7123;49.468;10.992;2022-07-24T00:56:15;10.57;;;9.30;;
14092;SDS011;7123;49.468;10.992;2022-07-24T00:58:42;9.63;;;8.82;;
14092;SDS011;7123;49.468;10.992;2022-07-24T01:01:10;9.80;;;8.80;;
14092;SDS011;7123;49.468;10.992;2022-07-24T01:03:37;9.98;;;9.02;;
14092;SDS011;7123;49.468;10.992;2022-07-24T01:06:05;9.43;;;8.63;;
14092;SDS011;7123;49.468;10.992;2022-07-24T01:08:33;9.07;;;8.27;;
14092;SDS011;7123;49.468;10.992;2022-07-24T01:11:02;9.90;;;9.10;;
14092;SDS011;7123;49.468;10.992;2022-07-24T01:13:30;9.25;;;8.55;;
14092;SDS011;7123;49.468;10.992;2022-07-24T01:15:57;9.63;;;8.82;;
14092;SDS011;7123;49.468;10.992;2022-07-24T01:18:25;9.13;;;8.43;;
14092;SDS011;7123;49.468;10.992;2022-07-24T01:20:51;9.88;;;8.85;;
14092;SDS011;7123;49.468;10.992;2022-07-24T01:23:18;10.02;;;9.10;;
14092;SDS011;7123;49.468;10.992;2022-07-24T01:25:45;10.40;;;8.90;;
14092;SDS011;7123;49.468;10.992;2022-07-24T01:28:12;10.80;;;8.93;;
14092;SDS011;7123;49.468;10.992;2022-07-24T01:30:39;10.02;;;9.10;;
14092;SDS011;7123;49.468;10.992;2022-07-24T01:33:06;9.88;;;9.13;;
14092;SDS011;7123;49.468;10.992;2022-07-24T01:35:33;10.43;;;9.40;;
14092;SDS011;7123;49.468;10.992;2022-07-24T01:37:59;9.40;;;8.60;;
14092;SDS011;7123;49.468;10.992;2022-07-24T01:40:26;8.80;;;8.20;;
14092;SDS011;7123;49.468;10.992;2022-07-24T01:42:53;10.45;;;9.02;;
14092;SDS011;7123;49.468;10.992;2022-07-24T01:45:19;10.23;;;9.15;;
14092;SDS011;7123;49.468;10.992;2022-07-24T01:47:47;10.38;;;9.30;;
14092;SDS011;7123;49.468;10.992;2022-07-24T01:50:14;10.77;;;9.20;;
14092;SDS011;7123;49.468;10.992;2022-07-24T01:52:42;9.43;;;8.57;;
14092;SDS011;7123;49.468;10.992;2022-07-24T01:55:09;10.07;;;9.27;;
14092;SDS011;7123;49.468;10.992;2022-07-24T01:57:36;10.75;;;9.73;;
14092;SDS011;7123;49.468;10.992;2022-07-24T02:00:04;10.13;;;9.23;;
14092;SDS011;7123;49.468;10.992;2022-07-24T02:02:36;9.90;;;9.15;;
14092;SDS011;7123;49.468;10.992;2022-07-24T02:05:03;10.63;;;9.38;;
14092;SDS011;7123;49.468;10.992;2022-07-24T02:07:30;10.23;;;9.32;;
14092;SDS011;7123;49.468;10.992;2022-07-24T02:09:56;10.77;;;9.82;;
14092;SDS011;7123;49.468;10.992;2022-07-24T02:12:23;10.10;;;9.20;;
14092;SDS011;7123;49.468;10.992;2022-07-24T02:14:49;10.88;;;9.77;;
14092;SDS011;7123;49.468;10.992;2022-07-24T02:17:18;10.60;;;9.50;;
14092;SDS011;7123;49.468;10.992;2022-07-24T02:19:45;10.18;;;9.30;;
14092;SDS011;7123;49.468;10.992;2022-07-24T02:22:11;10.60;;;9.63;;
14092;SDS011;7123;49.468;10.992;2022-07-24T02:24:38;10.57;;;9.68;;
14092;SDS011;7123;49.468;10.992;2022-07-24T02:27:05;11.18;;;10.00;;
14092;SDS011;7123;49.468;10.992;2022-07-24T02:29:31;11.18;;;10.23;;
14092;SDS011;7123;49.468;10.992;2022-07-24T02:31:58;10.55;;;9.55;;
14092;SDS011;7123;49.468;10.992;2022-07-24T02:34:26;9.95;;;8.95;;
14092;SDS011;7123;49.468;10.992;2022-07-24T02:36:53;10.38;;;9.50;;
14092;SDS011;7123;49.468;10.992;2022-07-24T02:39:19;10.02;;;9.18;;
14092;SDS011;7123;49.468;10.992;2022-07-24T02:41:46;10.38;;;9.30;;
14092;SDS011;7123;49.468;10.992;2022-07-24T02:44:13;9.45;;;8.70;;
14092;SDS011;7123;49.468;10.992;2022-07-24T02:46:40;10.30;;;9.38;;
14092;SDS011;7123;49.468;10.992;2022-07-24T02:49:06;9.95;;;9.02;;
14092;SDS011;7123;49.468;10.992;2022-07-24T02:51:34;9.73;;;9.00;;
14092;SDS011;7123;49.468;10.992;2022-07-24T02:54:01;10.07;;;9.18;;
14092;SDS011;7123;49.468;10.992;2022-07-24T02:56:27;10.73;;;9.82;;
14092;SDS011;7123;49.468;10.992;2022-07-24T02:58:54;10.13;;;9.15;;
14092;SDS011;7123;49.468;10.992;2022-07-24T03:01:21;10.73;;;9.73;;
14092;SDS011;7123;49.468;10.992;2022-07-24T03:03:48;10.38;;;9.43;;
14092;SDS011;7123;49.468;10.992;2022-07-24T03:06:14;10.70;;;9.80;;
14092;SDS011;7123;49.468;10.992;2022-07-24T03:08:41;12.27;;;9.02;;
14092;SDS011;7123;49.468;10.992;2022-07-24T03:11:08;10.60;;;9.63;;
14092;SDS011;7123;49.468;10.992;2022-07-24T03:13:34;11.15;;;10.15;;
14092;SDS011;7123;49.468;10.992;2022-07-24T03:16:01;10.57;;;9.73;;
14092;SDS011;7123;49.468;10.992;2022-07-24T03:18:28;11.10;;;10.15;;
14092;SDS011;7123;49.468;10.992;2022-07-24T03:20:54;10.82;;;10.02;;
14092;SDS011;7123;49.468;10.992;2022-07-24T03:23:21;11.27;;;10.25;;
14092;SDS011;7123;49.468;10.992;2022-07-24T03:25:48;10.43;;;9.38;;
14092;SDS011;7123;49.468;10.992;2022-07-24T03:28:15;10.70;;;9.80;;
14092;SDS011;7123;49.468;10.992;2022-07-24T03:30:41;10.82;;;9.77;;
14092;SDS011;7123;49.468;10.992;2022-07-24T03:33:08;9.85;;;8.98;;
14092;SDS011;7123;49.468;10.992;2022-07-24T03:35:35;10.73;;;9.63;;
14092;SDS011;7123;49.468;10.992;2022-07-24T03:38:02;10.60;;;9.68;;
14092;SDS011;7123;49.468;10.992;2022-07-24T03:40:28;10.05;;;9.13;;
14092;SDS011;7123;49.468;10.992;2022-07-24T03:42:55;10.15;;;9.25;;
14092;SDS011;7123;49.468;10.992;2022-07-24T03:45:22;10.88;;;9.75;;
14092;SDS011;7123;49.468;10.992;2022-07-24T03:47:49;10.05;;;9.15;;
14092;SDS011;7123;49.468;10.992;2022-07-24T03:50:15;10.63;;;9.73;;
14092;SDS011;7123;49.468;10.992;2022-07-24T03:52:47;9.70;;;8.90;;
14092;SDS011;7123;49.468;10.992;2022-07-24T03:55:15;9.73;;;8.88;;
14092;SDS011;7123;49.468;10.992;2022-07-24T03:57:42;10.23;;;9.23;;
14092;SDS011;7123;49.468;10.992;2022-07-24T04:00:09;10.77;;;9.73;;
14092;SDS011;7123;49.468;10.992;2022-07-24T04:02:36;10.10;;;9.30;;
14092;SDS011;7123;49.468;10.992;2022-07-24T04:05:03;10.63;;;9.63;;
14092;SDS011;7123;49.468;10.992;2022-07-24T04:07:33;11.52;;;10.55;;
14092;SDS011;7123;49.468;10.992;2022-07-24T04:09:59;10.70;;;9.80;;
14092;SDS011;7123;49.468;10.992;2022-07-24T04:12:26;10.43;;;9.45;;
14092;SDS011;7123;49.468;10.992;2022-07-24T04:14:53;10.48;;;9.52;;
14092;SDS011;7123;49.468;10.992;2022-07-24T04:17:19;10.73;;;9.85;;
14092;SDS011;7123;49.468;10.992;2022-07-24T04:19:46;10.73;;;9.82;;
14092;SDS011;7123;49.468;10.992;2022-07-24T04:22:13;10.75;;;9.68;;
14092;SDS011;7123;49.468;10.992;2022-07-24T04:24:39;10.45;;;9.50;;
14092;SDS011;7123;49.468;10.992;2022-07-24T04:27:06;10.43;;;9.45;;
14092;SDS011;7123;49.468;10.992;2022-07-24T04:29:33;10.90;;;9.90;;
14092;SDS011;7123;49.468;10.992;2022-07-24T04:32:00;11.00;;;9.88;;
14092;SDS011;7123;49.468;10.992;2022-07-24T04:34:27;12.13;;;10.35;;
14092;SDS011;7123;49.468;10.992;2022-07-24T04:36:53;9.80;;;8.90;;
14092;SDS011;7123;49.468;10.992;2022-07-24T04:39:20;10.43;;;9.50;;
14092;SDS011;7123;49.468;10.992;2022-07-24T04:41:47;10.85;;;9.98;;
14092;SDS011;7123;49.468;10.992;2022-07-24T04:44:13;10.90;;;9.70;;
14092;SDS011;7123;49.468;10.992;2022-07-24T04:46:40;11.52;;;10.23;;
14092;SDS011;7123;49.468;10.992;2022-07-24T04:49:07;12.35;;;11.05;;
14092;SDS011;7123;49.468;10.992;2022-07-24T04:51:34;10.88;;;9.93;;
14092;SDS011;7123;49.468;10.992;2022-07-24T04:54:01;10.88;;;9.95;;
14092;SDS011;7123;49.468;10.992;2022-07-24T04:56:28;11.10;;;10.07;;
14092;SDS011;7123;49.468;10.992;2022-07-24T04:58:58;10.65;;;9.65;;
14092;SDS011;7123;49.468;10.992;2022-07-24T05:01:25;10.35;;;9.45;;
14092;SDS011;7123;49.468;10.992;2022-07-24T05:03:52;11.43;;;10.35;;
14092;SDS011;7123;49.468;10.992;2022-07-24T05:06:19;10.93;;;9.93;;
14092;SDS011;7123;49.468;10.992;2022-07-24T05:08:46;10.82;;;9.82;;
14092;SDS011;7123;49.468;10.992;2022-07-24T05:11:12;11.20;;;10.20;;
14092;SDS011;7123;49.468;10.992;2022-07-24T05:13:39;10.60;;;9.70;;
14092;SDS011;7123;49.468;10.992;2022-07-24T05:16:06;11.82;;;10.73;;
14092;SDS011;7123;49.468;10.992;2022-07-24T05:18:32;10.98;;;9.98;;
14092;SDS011;7123;49.468;10.992;2022-07-24T05:20:59;10.90;;;9.90;;
14092;SDS011;7123;49.468;10.992;2022-07-24T05:23:26;12.95;;;10.23;;
14092;SDS011;7123;49.468;10.992;2022-07-24T05:25:52;11.23;;;9.80;;
14092;SDS011;7123;49.468;10.992;2022-07-24T05:28:19;10.98;;;10.00;;
14092;SDS011;7123;49.468;10.992;2022-07-24T05:30:46;10.50;;;9.50;;
14092;SDS011;7123;49.468;10.992;2022-07-24T05:33:13;11.25;;;10.23;;
14092;SDS011;7123;49.468;10.992;2022-07-24T05:35:39;11.55;;;10.38;;
14092;SDS011;7123;49.468;10.992;2022-07-24T05:38:06;11.50;;;10.50;;
14092;SDS011;7123;49.468;10.992;2022-07-24T05:40:33;11.75;;;10.25;;
14092;SDS011;7123;49.468;10.992;2022-07-24T05:42:59;10.70;;;9.82;;
14092;SDS011;7123;49.468;10.992;2022-07-24T05:45:26;13.32;;;10.27;;
14092;SDS011;7123;49.468;10.992;2022-07-24T05:47:53;11.90;;;10.90;;
14092;SDS011;7123;49.468;10.992;2022-07-24T05:50:19;11.05;;;10.15;;
14092;SDS011;7123;49.468;10.992;2022-07-24T05:52:46;12.05;;;11.00;;
14092;SDS011;7123;49.468;10.992;2022-07-24T05:55:13;11.95;;;10.95;;
14092;SDS011;7123;49.468;10.992;2022-07-24T05:57:42;11.20;;;10.18;;
14092;SDS011;7123;49.468;10.992;2022-07-24T06:00:10;10.65;;;9.80;;
14092;SDS011;7123;49.468;10.992;2022-07-24T06:02:43;10.50;;;9.70;;
14092;SDS011;7123;49.468;10.992;2022-07-24T06:05:11;12.82;;;10.93;;
14092;SDS011;7123;49.468;10.992;2022-07-24T06:07:39;11.93;;;10.73;;
14092;SDS011;7123;49.468;10.992;2022-07-24T06:10:07;11.25;;;10.35;;
14092;SDS011;7123;49.468;10.992;2022-07-24T06:12:38;11.93;;;10.73;;
14092;SDS011;7123;49.468;10.992;2022-07-24T06:15:05;11.38;;;10.27;;
14092;SDS011;7123;49.468;10.992;2022-07-24T06:17:32;11.52;;;10.43;;
14092;SDS011;7123;49.468;10.992;2022-07-24T06:19:58;11.73;;;10.63;;
14092;SDS011;7123;49.468;10.992;2022-07-24T06:22:25;11.90;;;10.80;;
14092;SDS011;7123;49.468;10.992;2022-07-24T06:24:52;11.30;;;10.30;;
14092;SDS011;7123;49.468;10.992;2022-07-24T06:27:18;11.02;;;10.02;;
14092;SDS011;7123;49.468;10.992;2022-07-24T06:29:45;11.32;;;10.27;;
14092;SDS011;7123;49.468;10.992;2022-07-24T06:32:12;12.80;;;11.15;;
14092;SDS011;7123;49.468;10.992;2022-07-24T06:34:38;10.88;;;9.95;;
14092;SDS011;7123;49.468;10.992;2022-07-24T06:37:05;11.77;;;10.65;;
14092;SDS011;7123;49.468;10.992;2022-07-24T06:39:32;10.63;;;9.73;;
14092;SDS011;7123;49.468;10.992;2022-07-24T06:41:59;12.80;;;11.70;;
14092;SDS011;7123;49.468;10.992;2022-07-24T06:44:25;12.23;;;11.15;;
14092;SDS011;7123;49.468;10.992;2022-07-24T06:46:52;11.07;;;10.18;;
14092;SDS011;7123;49.468;10.992;2022-07-24T06:49:19;11.25;;;10.15;;
14092;SDS011;7123;49.468;10.992;2022-07-24T06:51:46;11.85;;;10.85;;
14092;SDS011;7123;49.468;10.992;2022-07-24T06:54:14;11.82;;;10.75;;
14092;SDS011;7123;49.468;10.992;2022-07-24T06:56:40;10.75;;;9.77;;
14092;SDS011;7123;49.468;10.992;2022-07-24T06:59:07;11.55;;;10.60;;
14092;SDS011;7123;49.468;10.992;2022-07-24T07:01:34;10.93;;;10.05;;
14092;SDS011;7123;49.468;10.992;2022-07-24T07:04:01;11.23;;;10.32;;
14092;SDS011;7123;49.468;10.992;2022-07-24T07:06:27;12.73;;;11.60;;
14092;SDS011;7123;49.468;10.992;2022-07-24T07:08:54;11.82;;;10.82;;
14092;SDS011;7123;49.468;10.992;2022-07-24T07:11:21;13.57;;;11.02;;
14092;SDS011;7123;49.468;10.992;2022-07-24T07:13:47;12.57;;;11.45;;
14092;SDS011;7123;49.468;10.992;2022-07-24T07:16:14;11.73;;;10.70;;
14092;SDS011;7123;49.468;10.992;2022-07-24T07:18:41;11.57;;;10.48;;
14092;SDS011;7123;49.468;10.992;2022-07-24T07:21:08;10.38;;;9.48;;
14092;SDS011;7123;49.468;10.992;2022-07-24T07:23:35;10.63;;;9.82;;
14092;SDS011;7123;49.468;10.992;2022-07-24T07:26:01;11.90;;;10.80;;
14092;SDS011;7123;49.468;10.992;2022-07-24T07:28:28;11.00;;;9.98;;
14092;SDS011;7123;49.468;10.992;2022-07-24T07:30:57;10.98;;;9.98;;
14092;SDS011;7123;49.468;10.992;2022-07-24T07:33:24;11.45;;;10.35;;
14092;SDS011;7123;49.468;10.992;2022-07-24T07:35:52;11.02;;;10.00;;
14092;SDS011;7123;49.468;10.992;2022-07-24T07:38:19;11.00;;;10.00;;
14092;SDS011;7123;49.468;10.992;2022-07-24T07:40:51;11.15;;;9.85;;
14092;SDS011;7123;49.468;10.992;2022-07-24T07:43:18;11.65;;;10.30;;
14092;SDS011;7123;49.468;10.992;2022-07-24T07:45:45;11.20;;;10.10;;
14092;SDS011;7123;49.468;10.992;2022-07-24T07:48:12;10.95;;;10.07;;
14092;SDS011;7123;49.468;10.992;2022-07-24T07:50:38;11.75;;;9.98;;
14092;SDS011;7123;49.468;10.992;2022-07-24T07:53:05;10.82;;;9.70;;
14092;SDS011;7123;49.468;10.992;2022-07-24T07:55:32;10.40;;;9.40;;
14092;SDS011;7123;49.468;10.992;2022-07-24T07:57:59;10.55;;;9.75;;
14092;SDS011;7123;49.468;10.992;2022-07-24T08:00:31;10.30;;;9.30;;
14092;SDS011;7123;49.468;10.992;2022-07-24T08:02:59;10.82;;;9.82;;
14092;SDS011;7123;49.468;10.992;2022-07-24T08:05:26;11.27;;;10.13;;
14092;SDS011;7123;49.468;10.992;2022-07-24T08:07:52;10.38;;;9.57;;
14092;SDS011;7123;49.468;10.992;2022-07-24T08:10:20;10.68;;;9.75;;
14092;SDS011;7123;49.468;10.992;2022-07-24T08:12:47;10.88;;;9.90;;
14092;SDS011;7123;49.468;10.992;2022-07-24T08:15:14;11.68;;;10.27;;
14092;SDS011;7123;49.468;10.992;2022-07-24T08:17:41;10.93;;;9.93;;
14092;SDS011;7123;49.468;10.992;2022-07-24T08:20:09;10.20;;;9.40;;
14092;SDS011;7123;49.468;10.992;2022-07-24T08:22:36;10.02;;;9.25;;
14092;SDS011;7123;49.468;10.992;2022-07-24T08:25:03;9.55;;;8.80;;
14092;SDS011;7123;49.468;10.992;2022-07-24T08:27:30;10.82;;;9.93;;
14092;SDS011;7123;49.468;10.992;2022-07-24T08:29:56;10.32;;;9.32;;
14092;SDS011;7123;49.468;10.992;2022-07-24T08:32:23;11.40;;;9.50;;
14092;SDS011;7123;49.468;10.992;2022-07-24T08:34:50;10.50;;;9.60;;
14092;SDS011;7123;49.468;10.992;2022-07-24T08:37:18;10.00;;;9.20;;
14092;SDS011;7123;49.468;10.992;2022-07-24T08:39:46;10.73;;;9.73;;
14092;SDS011;7123;49.468;10.992;2022-07-24T08:42:13;10.45;;;9.52;;
14092;SDS011;7123;49.468;10.992;2022-07-24T08:44:40;9.82;;;9.02;;
14092;SDS011;7123;49.468;10.992;2022-07-24T08:47:07;10.50;;;9.50;;
14092;SDS011;7123;49.468;10.992;2022-07-24T08:49:37;10.20;;;9.38;;
14092;SDS011;7123;49.468;10.992;2022-07-24T08:52:05;9.80;;;9.00;;
14092;SDS011;7123;49.468;10.992;2022-07-24T08:54:35;9.60;;;8.70;;
14092;SDS011;7123;49.468;10.992;2022-07-24T08:57:03;10.00;;;9.20;;
14092;SDS011;7123;49.468;10.992;2022-07-24T08:59:30;9.60;;;8.70;;
14092;SDS011;7123;49.468;10.992;2022-07-24T09:01:57;11.00;;;8.40;;
14092;SDS011;7123;49.468;10.992;2022-07-24T09:04:31;9.48;;;8.57;;
14092;SDS011;7123;49.468;10.992;2022-07-24T09:07:09;9.52;;;8.55;;
14092;SDS011;7123;49.468;10.992;2022-07-24T09:09:39;8.38;;;7.60;;
14092;SDS011;7123;49.468;10.992;2022-07-24T09:14:39;8.48;;;7.60;;
14092;SDS011;7123;49.468;10.992;2022-07-24T09:19:49;8.70;;;8.00;;
14092;SDS011;7123;49.468;10.992;2022-07-24T09:28:02;7.70;;;7.10;;
14092;SDS011;7123;49.468;10.992;2022-07-24T09:30:33;7.63;;;7.03;;
14092;SDS011;7123;49.468;10.992;2022-07-24T09:33:04;7.57;;;6.82;;
14092;SDS011;7123;49.468;10.992;2022-07-24T09:35:41;7.25;;;6.65;;
14092;SDS011;7123;49.468;10.992;2022-07-24T09:38:10;7.10;;;6.50;;
14092;SDS011;7123;49.468;10.992;2022-07-24T09:40:43;7.00;;;6.50;;
14092;SDS011;7123;49.468;10.992;2022-07-24T09:48:30;7.63;;;6.93;;
14092;SDS011;7123;49.468;10.992;2022-07-24T09:51:03;8.68;;;7.93;;
14092;SDS011;7123;49.468;10.992;2022-07-24T09:53:41;7.88;;;7.13;;
14092;SDS011;7123;49.468;10.992;2022-07-24T09:56:10;8.65;;;7.95;;
14092;SDS011;7123;49.468;10.992;2022-07-24T09:58:39;8.27;;;7.43;;
14092;SDS011;7123;49.468;10.992;2022-07-24T10:01:14;7.72;;;7.13;;
14092;SDS011;7123;49.468;10.992;2022-07-24T10:03:44;7.68;;;7.07;;
14092;SDS011;7123;49.468;10.992;2022-07-24T10:06:21;7.86;;;7.24;;
14092;SDS011;7123;49.468;10.992;2022-07-24T10:08:52;7.32;;;6.82;;
14092;SDS011;7123;49.468;10.992;2022-07-24T10:11:19;7.18;;;6.53;;
14092;SDS011;7123;49.468;10.992;2022-07-24T10:13:48;7.70;;;7.00;;
14092;SDS011;7123;49.468;10.992;2022-07-24T10:16:22;7.38;;;6.78;;
14092;SDS011;7123;49.468;10.992;2022-07-24T10:21:35;8.07;;;7.32;;
14092;SDS011;7123;49.468;10.992;2022-07-24T10:26:34;8.45;;;7.30;;
14092;SDS011;7123;49.468;10.992;2022-07-24T10:29:08;7.65;;;6.97;;
14092;SDS011;7123;49.468;10.992;2022-07-24T10:31:37;8.02;;;7.43;;
14092;SDS011;7123;49.468;10.992;2022-07-24T10:34:18;7.78;;;7.00;;
14092;SDS011;7123;49.468;10.992;2022-07-24T10:37:11;7.28;;;6.68;;
14092;SDS011;7123;49.468;10.992;2022-07-24T10:40:12;10.60;;;7.43;;
14092;SDS011;7123;49.468;10.992;2022-07-24T10:43:13;8.13;;;7.32;;
14092;SDS011;7123;49.468;10.992;2022-07-24T10:53:28;9.05;;;7.78;;
14092;SDS011;7123;49.468;10.992;2022-07-24T10:56:15;9.85;;;7.97;;
14092;SDS011;7123;49.468;10.992;2022-07-24T11:01:33;7.53;;;6.95;;
14092;SDS011;7123;49.468;10.992;2022-07-24T11:04:03;7.78;;;7.18;;
14092;SDS011;7123;49.468;10.992;2022-07-24T11:12:27;8.05;;;7.38;;
14092;SDS011;7123;49.468;10.992;2022-07-24T11:15:01;8.57;;;7.70;;
14092;SDS011;7123;49.468;10.992;2022-07-24T11:17:48;8.38;;;7.55;;
14092;SDS011;7123;49.468;10.992;2022-07-24T11:20:16;7.97;;;7.22;;
14092;SDS011;7123;49.468;10.992;2022-07-24T11:22:46;7.95;;;7.35;;
14092;SDS011;7123;49.468;10.992;2022-07-24T11:25:20;8.07;;;7.20;;
14092;SDS011;7123;49.468;10.992;2022-07-24T11:27:48;9.00;;;7.53;;
14092;SDS011;7123;49.468;10.992;2022-07-24T11:30:19;8.40;;;7.63;;
14092;SDS011;7123;49.468;10.992;2022-07-24T11:32:47;7.50;;;6.90;;
14092;SDS011;7123;49.468;10.992;2022-07-24T11:35:14;7.15;;;6.65;;
14092;SDS011;7123;49.468;10.992;2022-07-24T11:37:41;7.53;;;6.90;;
14092;SDS011;7123;49.468;10.992;2022-07-24T11:40:13;7.15;;;6.65;;
14092;SDS011;7123;49.468;10.992;2022-07-24T11:42:41;8.63;;;7.50;;
14092;SDS011;7123;49.468;10.992;2022-07-24T11:45:09;8.18;;;7.45;;
14092;SDS011;7123;49.468;10.992;2022-07-24T11:47:38;7.55;;;6.95;;
14092;SDS011;7123;49.468;10.992;2022-07-24T11:50:05;7.88;;;7.05;;
14092;SDS011;7123;49.468;10.992;2022-07-24T11:52:34;8.65;;;7.60;;
14092;SDS011;7123;49.468;10.992;2022-07-24T11:55:11;8.30;;;7.60;;
14092;SDS011;7123;49.468;10.992;2022-07-24T11:57:42;7.35;;;6.85;;
14092;SDS011;7123;49.468;10.992;2022-07-24T12:00:31;8.23;;;7.57;;
14092;SDS011;7123;49.468;10.992;2022-07-24T12:02:58;7.70;;;6.90;;
14092;SDS011;7123;49.468;10.992;2022-07-24T12:05:32;7.97;;;7.25;;
14092;SDS011;7123;49.468;10.992;2022-07-24T12:08:01;7.88;;;7.25;;
14092;SDS011;7123;49.468;10.992;2022-07-24T12:10:30;7.22;;;6.47;;
14092;SDS011;7123;49.468;10.992;2022-07-24T12:12:57;6.82;;;6.32;;
14092;SDS011;7123;49.468;10.992;2022-07-24T12:15:24;7.78;;;7.10;;
14092;SDS011;7123;49.468;10.992;2022-07-24T12:18:05;7.30;;;6.75;;
14092;SDS011;7123;49.468;10.992;2022-07-24T12:20:40;7.70;;;7.10;;
14092;SDS011;7123;49.468;10.992;2022-07-24T12:23:12;8.05;;;7.28;;
14092;SDS011;7123;49.468;10.992;2022-07-24T12:25:40;7.65;;;6.95;;
14092;SDS011;7123;49.468;10.992;2022-07-24T12:28:13;7.28;;;6.68;;
14092;SDS011;7123;49.468;10.992;2022-07-24T12:30:41;7.60;;;7.00;;
14092;SDS011;7123;49.468;10.992;2022-07-24T12:38:38;7.30;;;6.70;;
14092;SDS011;7123;49.468;10.992;2022-07-24T12:41:17;7.60;;;7.00;;
14092;SDS011;7123;49.468;10.992;2022-07-24T12:43:50;7.28;;;6.70;;
14092;SDS011;7123;49.468;10.992;2022-07-24T12:46:30;7.03;;;6.50;;
14092;SDS011;7123;49.468;10.992;2022-07-24T12:49:17;7.25;;;6.65;;
14092;SDS011;7123;49.468;10.992;2022-07-24T12:51:55;7.43;;;6.85;;
14092;SDS011;7123;49.468;10.992;2022-07-24T12:54:27;7.70;;;6.88;;
14092;SDS011;7123;49.468;10.992;2022-07-24T12:57:19;6.90;;;6.30;;
14092;SDS011;7123;49.468;10.992;2022-07-24T12:59:59;8.57;;;6.60;;
14092;SDS011;7123;49.468;10.992;2022-07-24T13:02:28;7.43;;;6.72;;
14092;SDS011;7123;49.468;10.992;2022-07-24T13:05:00;7.25;;;6.75;;
14092;SDS011;7123;49.468;10.992;2022-07-24T13:07:27;7.53;;;6.88;;
14092;SDS011;7123;49.468;10.992;2022-07-24T13:09:54;6.40;;;6.00;;
14092;SDS011;7123;49.468;10.992;2022-07-24T13:12:22;7.25;;;6.68;;
14092;SDS011;7123;49.468;10.992;2022-07-24T13:14:49;6.93;;;6.32;;
14092;SDS011;7123;49.468;10.992;2022-07-24T13:17:16;6.55;;;6.00;;
14092;SDS011;7123;49.468;10.992;2022-07-24T13:19:45;7.78;;;6.60;;
14092;SDS011;7123;49.468;10.992;2022-07-24T13:22:16;7.90;;;6.30;;
14092;SDS011;7123;49.468;10.992;2022-07-24T13:24:43;7.18;;;6.57;;
14092;SDS011;7123;49.468;10.992;2022-07-24T13:27:11;7.03;;;6.35;;
14092;SDS011;7123;49.468;10.992;2022-07-24T13:29:39;7.43;;;6.70;;
14092;SDS011;7123;49.468;10.992;2022-07-24T13:32:06;7.07;;;6.57;;
14092;SDS011;7123;49.468;10.992;2022-07-24T13:34:33;7.10;;;6.60;;
14092;SDS011;7123;49.468;10.992;2022-07-24T13:37:02;7.85;;;7.07;;
14092;SDS011;7123;49.468;10.992;2022-07-24T13:39:33;6.55;;;6.05;;
14092;SDS011;7123;49.468;10.992;2022-07-24T13:42:02;6.95;;;6.55;;
14092;SDS011;7123;49.468;10.992;2022-07-24T13:44:29;7.10;;;6.50;;
14092;SDS011;7123;49.468;10.992;2022-07-24T13:46:56;7.93;;;6.20;;
14092;SDS011;7123;49.468;10.992;2022-07-24T13:49:23;7.45;;;6.75;;
14092;SDS011;7123;49.468;10.992;2022-07-24T13:51:50;6.93;;;6.43;;
14092;SDS011;7123;49.468;10.992;2022-07-24T13:54:17;6.90;;;6.47;;
14092;SDS011;7123;49.468;10.992;2022-07-24T13:56:44;7.00;;;6.50;;
14092;SDS011;7123;49.468;10.992;2022-07-24T13:59:11;6.95;;;6.43;;
14092;SDS011;7123;49.468;10.992;2022-07-24T14:01:38;7.60;;;6.72;;
14092;SDS011;7123;49.468;10.992;2022-07-24T14:04:06;6.82;;;6.35;;
14092;SDS011;7123;49.468;10.992;2022-07-24T14:06:53;6.82;;;6.32;;
14092;SDS011;7123;49.468;10.992;2022-07-24T14:09:20;7.28;;;6.68;;
14092;SDS011;7123;49.468;10.992;2022-07-24T14:11:47;6.78;;;6.28;;
14092;SDS011;7123;49.468;10.992;2022-07-24T14:14:15;6.65;;;6.15;;
14092;SDS011;7123;49.468;10.992;2022-07-24T14:16:43;6.60;;;6.13;;
14092;SDS011;7123;49.468;10.992;2022-07-24T14:19:10;7.38;;;6.55;;
14092;SDS011;7123;49.468;10.992;2022-07-24T14:21:38;7.00;;;6.43;;
14092;SDS011;7123;49.468;10.992;2022-07-24T14:24:07;7.07;;;6.65;;
14092;SDS011;7123;49.468;10.992;2022-07-24T14:26:41;6.95;;;6.40;;
14092;SDS011;7123;49.468;10.992;2022-07-24T14:29:09;6.60;;;6.10;;
14092;SDS011;7123;49.468;10.992;2022-07-24T14:31:36;7.22;;;6.50;;
14092;SDS011;7123;49.468;10.992;2022-07-24T14:34:03;7.07;;;6.43;;
14092;SDS011;7123;49.468;10.992;2022-07-24T14:36:31;6.75;;;6.22;;
14092;SDS011;7123;49.468;10.992;2022-07-24T14:38:58;7.25;;;6.75;;
14092;SDS011;7123;49.468;10.992;2022-07-24T14:41:25;7.45;;;6.78;;
14092;SDS011;7123;49.468;10.992;2022-07-24T14:43:52;7.20;;;6.63;;
14092;SDS011;7123;49.468;10.992;2022-07-24T14:46:18;6.88;;;6.28;;
14092;SDS011;7123;49.468;10.992;2022-07-24T14:48:46;6.90;;;6.40;;
14092;SDS011;7123;49.468;10.992;2022-07-24T14:51:17;7.45;;;6.90;;
14092;SDS011;7123;49.468;10.992;2022-07-24T14:53:47;6.68;;;6.28;;
14092;SDS011;7123;49.468;10.992;2022-07-24T14:56:16;6.78;;;6.28;;
14092;SDS011;7123;49.468;10.992;2022-07-24T14:58:51;7.28;;;6.65;;
14092;SDS011;7123;49.468;10.992;2022-07-24T15:01:18;6.13;;;5.63;;
14092;SDS011;7123;49.468;10.992;2022-07-24T15:03:47;6.97;;;6.35;;
14092;SDS011;7123;49.468;10.992;2022-07-24T15:06:17;6.43;;;6.03;;
14092;SDS011;7123;49.468;10.992;2022-07-24T15:08:49;7.13;;;6.63;;
14092;SDS011;7123;49.468;10.992;2022-07-24T15:11:16;8.13;;;6.55;;
14092;SDS011;7123;49.468;10.992;2022-07-24T15:13:44;6.95;;;6.38;;
14092;SDS011;7123;49.468;10.992;2022-07-24T15:16:11;7.03;;;6.20;;
14092;SDS011;7123;49.468;10.992;2022-07-24T15:18:38;6.95;;;6.45;;
14092;SDS011;7123;49.468;10.992;2022-07-24T15:21:05;6.78;;;6.20;;
14092;SDS011;7123;49.468;10.992;2022-07-24T15:23:32;7.07;;;6.47;;
14092;SDS011;7123;49.468;10.992;2022-07-24T15:25:59;6.82;;;6.10;;
14092;SDS011;7123;49.468;10.992;2022-07-24T15:28:26;7.25;;;6.57;;
14092;SDS011;7123;49.468;10.992;2022-07-24T15:30:53;8.32;;;6.55;;